Time;durP1;ratioP1;P1;durP2;ratioP2;P2;SDS_P1;SDS_P2;PMS_P1;PMS_P2;Temp;Humidity;BMP_temperature;BMP_pressure;BME280_temperature;BME280_humidity;BME280_pressure;Samples;Min_cycle;Max_cycle;Signal;HPM_P1;HPM_P2
2022/05/16 00:00:22;;;;;;;4.77;3.50;;;;;;;16.49;100.00;96365.06;5074986;28;20208;-86
2022/05/16 00:02:49;;;;;;;4.00;3.60;;;;;;;16.43;100.00;96363.38;5075591;28;20237;-86
2022/05/16 00:05:17;;;;;;;6.23;3.47;;;;;;;16.46;100.00;96362.88;5079786;28;20359;-86
2022/05/16 00:07:44;;;;;;;4.33;3.20;;;;;;;16.40;100.00;96363.94;5074026;28;20205;-86
2022/05/16 00:10:12;;;;;;;6.40;3.63;;;;;;;16.40;100.00;96363.94;5082307;28;20208;-86
2022/05/16 00:12:39;;;;;;;4.23;3.83;;;;;;;16.42;100.00;96355.47;5095738;28;20250;-86
2022/05/16 00:15:08;;;;;;;6.17;3.47;;;;;;;16.40;100.00;96350.31;5080713;28;20320;-86
2022/05/16 00:17:37;;;;;;;4.77;3.43;;;;;;;16.38;100.00;96347.03;5082541;28;20323;-85
2022/05/16 00:20:05;;;;;;;5.30;3.33;;;;;;;16.39;100.00;96345.94;5071432;28;20240;-86
2022/05/16 00:22:33;;;;;;;5.73;3.90;;;;;;;16.46;100.00;96349.25;5068077;28;20236;-86
2022/05/16 00:25:01;;;;;;;3.50;3.20;;;;;;;16.54;100.00;96351.44;5072097;28;20229;-86
2022/05/16 00:27:33;;;;;;;7.13;3.47;;;;;;;16.48;100.00;96347.06;5080515;28;20211;-86
2022/05/16 00:30:02;;;;;;;5.33;3.60;;;;;;;16.47;100.00;96336.44;5081218;28;20200;-86
2022/05/16 00:32:30;;;;;;;6.53;3.70;;;;;;;16.47;100.00;96337.25;5080294;28;20206;-85
2022/05/16 00:34:59;;;;;;;5.90;3.50;;;;;;;16.59;100.00;96337.81;5072447;28;20295;-85
2022/05/16 00:37:26;;;;;;;3.77;3.20;;;;;;;16.67;100.00;96338.44;5070110;28;20206;-85
2022/05/16 00:39:53;;;;;;;3.77;2.93;;;;;;;16.73;100.00;96353.72;5095848;28;20205;-85
2022/05/16 00:42:20;;;;;;;3.67;3.10;;;;;;;16.72;100.00;96342.00;5077194;28;20220;-86
2022/05/16 00:44:48;;;;;;;5.20;3.57;;;;;;;16.78;100.00;96345.53;5077986;28;20276;-86
2022/05/16 00:47:16;;;;;;;4.10;3.60;;;;;;;16.77;100.00;96339.25;5074140;28;20213;-86
2022/05/16 00:49:49;;;;;;;4.80;3.37;;;;;;;16.80;100.00;96343.38;5079828;28;20296;-86
2022/05/16 00:52:21;;;;;;;3.70;3.27;;;;;;;16.76;100.00;96325.91;5071583;28;20287;-86
2022/05/16 00:54:52;;;;;;;4.03;3.63;;;;;;;16.80;100.00;96329.72;5080812;28;20220;-86
2022/05/16 00:57:22;;;;;;;8.30;3.00;;;;;;;16.82;100.00;96319.38;5079433;28;20309;-85
2022/05/16 00:59:52;;;;;;;6.10;3.50;;;;;;;16.83;100.00;96321.84;5069494;28;20216;-85
2022/05/16 01:05:07;;;;;;;3.83;3.37;;;;;;;16.79;100.00;96309.81;5068907;28;20216;-86
2022/05/16 01:07:39;;;;;;;5.13;3.47;;;;;;;16.76;100.00;96315.81;5078710;28;20208;-85
2022/05/16 01:10:10;;;;;;;5.40;3.40;;;;;;;16.83;100.00;96312.84;5078550;28;20223;-85
2022/05/16 01:12:40;;;;;;;5.73;3.50;;;;;;;16.75;100.00;96299.75;5072289;28;20209;-86
2022/05/16 01:15:10;;;;;;;10.83;3.50;;;;;;;16.61;100.00;96294.78;5070866;28;20236;-86
2022/05/16 01:17:38;;;;;;;4.90;3.57;;;;;;;16.53;100.00;96284.38;5069483;28;20365;-86
2022/05/16 01:20:06;;;;;;;8.83;3.83;;;;;;;16.66;100.00;96295.91;5082442;28;20212;-86
2022/05/16 01:22:38;;;;;;;7.80;3.60;;;;;;;16.57;100.00;96287.41;5074643;28;20419;-86
2022/05/16 01:25:11;;;;;;;4.80;3.10;;;;;;;16.50;100.00;96293.09;5079196;28;20217;-86
2022/05/16 01:27:44;;;;;;;7.00;4.03;;;;;;;16.47;100.00;96290.09;5074035;28;20201;-86
2022/05/16 01:30:13;;;;;;;7.73;4.00;;;;;;;16.46;100.00;96288.47;5068674;28;20208;-86
2022/05/16 01:32:40;;;;;;;7.90;4.20;;;;;;;16.45;100.00;96290.38;5073189;28;20201;-86
2022/05/16 01:35:10;;;;;;;5.83;3.67;;;;;;;16.43;100.00;96289.81;5074925;28;20213;-86
2022/05/16 01:40:23;;;;;;;4.20;3.80;;;;;;;16.49;100.00;96277.84;5079430;28;20213;-86
2022/05/16 01:42:50;;;;;;;8.30;4.07;;;;;;;16.48;100.00;96278.94;5090173;28;20236;-85
2022/05/16 01:45:17;;;;;;;4.13;3.70;;;;;;;16.51;100.00;96286.56;5067674;28;20224;-86
2022/05/16 01:47:46;;;;;;;9.13;3.63;;;;;;;16.56;100.00;96281.13;5081363;28;20201;-86
2022/05/16 01:50:13;;;;;;;10.67;3.70;;;;;;;16.55;100.00;96281.41;5096507;28;20207;-86
2022/05/16 01:52:41;;;;;;;6.47;4.63;;;;;;;16.55;100.00;96281.41;5083740;28;20228;-86
2022/05/16 01:55:11;;;;;;;5.10;4.07;;;;;;;16.53;100.00;96281.66;5074078;28;20308;-86
2022/05/16 01:57:38;;;;;;;4.97;3.90;;;;;;;16.62;100.00;96284.72;5078140;28;20217;-86
2022/05/16 02:00:09;;;;;;;6.30;4.27;;;;;;;16.61;100.00;96283.06;5077179;28;20209;-86
2022/05/16 02:02:42;;;;;;;5.00;3.53;;;;;;;16.63;100.00;96292.63;5077613;28;20231;-86
2022/05/16 02:05:10;;;;;;;10.33;4.47;;;;;;;16.68;100.00;96296.44;5079039;28;20207;-86
2022/05/16 02:07:37;;;;;;;7.53;4.10;;;;;;;16.56;100.00;96293.94;5079803;28;20250;-86
2022/05/16 02:10:08;;;;;;;7.43;4.30;;;;;;;16.52;100.00;96304.56;5074777;28;20202;-86
2022/05/16 02:12:36;;;;;;;10.57;4.90;;;;;;;16.47;100.00;96298.28;5083254;28;20197;-86
2022/05/16 02:15:07;;;;;;;5.63;3.80;;;;;;;16.47;100.00;96298.28;5080386;28;20220;-87
2022/05/16 02:17:34;;;;;;;7.67;4.33;;;;;;;16.45;100.00;96300.44;5077039;28;20323;-86
2022/05/16 02:20:02;;;;;;;9.30;4.83;;;;;;;16.42;100.00;96290.06;5093910;28;20205;-86
2022/05/16 02:25:16;;;;;;;5.03;4.20;;;;;;;16.27;100.00;96288.94;5075466;28;20242;-86
2022/05/16 02:27:45;;;;;;;8.43;4.17;;;;;;;16.23;100.00;96292.50;5077150;28;20208;-86
2022/05/16 02:30:14;;;;;;;5.07;4.53;;;;;;;16.13;100.00;96298.72;5082170;28;20226;-86
2022/05/16 02:32:41;;;;;;;6.70;4.50;;;;;;;16.08;100.00;96290.50;5080541;28;20201;-86
2022/05/16 02:35:09;;;;;;;9.63;4.53;;;;;;;16.12;100.00;96297.06;5082506;28;20213;-86
2022/05/16 02:37:37;;;;;;;7.33;4.47;;;;;;;16.13;100.00;96292.44;5081873;28;20200;-86
2022/05/16 02:40:06;;;;;;;10.40;4.50;;;;;;;16.09;100.00;96303.03;5071493;28;20201;-86
2022/05/16 02:42:35;;;;;;;7.77;4.57;;;;;;;16.04;100.00;96300.31;5090179;28;20233;-85
2022/05/16 02:45:03;;;;;;;7.90;4.93;;;;;;;15.95;100.00;96285.56;5083446;28;20205;-86
2022/05/16 02:47:30;;;;;;;5.30;4.53;;;;;;;15.97;100.00;96299.75;5081639;28;20266;-86
2022/05/16 02:49:57;;;;;;;9.77;4.57;;;;;;;15.95;100.00;96301.91;5084644;28;20205;-86
2022/05/16 02:52:24;;;;;;;8.57;4.20;;;;;;;15.92;100.00;96305.13;5076503;28;20266;-86
2022/05/16 02:54:52;;;;;;;10.80;4.30;;;;;;;15.84;100.00;96308.38;5078039;28;20216;-86
2022/05/16 02:57:19;;;;;;;8.90;4.90;;;;;;;15.77;100.00;96305.88;5075642;28;20205;-86
2022/05/16 02:59:48;;;;;;;5.63;4.93;;;;;;;15.68;100.00;96304.75;5094607;28;20224;-85
2022/05/16 03:02:15;;;;;;;8.53;5.03;;;;;;;15.65;100.00;96318.88;5078624;28;20211;-86
2022/05/16 03:04:42;;;;;;;12.50;4.80;;;;;;;15.70;100.00;96321.63;5070590;28;20232;-86
2022/05/16 03:07:09;;;;;;;6.77;4.73;;;;;;;15.70;100.00;96327.09;5068970;28;20216;-85
2022/05/16 03:09:37;;;;;;;6.70;4.50;;;;;;;15.68;100.00;96329.25;5085120;28;20214;-85
2022/05/16 03:12:05;;;;;;;10.87;5.00;;;;;;;15.69;100.00;96327.34;5082780;28;20239;-86
2022/05/16 03:14:35;;;;;;;9.63;5.27;;;;;;;15.55;100.00;96329.72;5089262;28;20209;-85
2022/05/16 03:17:04;;;;;;;6.87;5.17;;;;;;;15.54;100.00;96333.53;5078609;28;20212;-86
2022/05/16 03:19:34;;;;;;;8.27;5.17;;;;;;;15.51;100.00;96325.84;5068209;28;20316;-86
2022/05/16 03:22:01;;;;;;;8.43;5.20;;;;;;;15.54;100.00;96336.25;5079646;28;20224;-87
2022/05/16 03:24:28;;;;;;;7.10;5.27;;;;;;;15.49;100.00;96330.72;5078913;28;20232;-86
2022/05/16 03:26:55;;;;;;;11.20;4.93;;;;;;;15.54;100.00;96338.13;5074301;28;20202;-86
2022/05/16 03:29:22;;;;;;;10.30;6.87;;;;;;;15.49;100.00;96339.69;5078142;28;20200;-86
2022/05/16 03:31:50;;;;;;;9.37;5.50;;;;;;;15.47;100.00;96341.88;5091176;28;20209;-85
2022/05/16 03:34:19;;;;;;;9.83;6.37;;;;;;;15.44;100.00;96328.78;5075909;28;20271;-85
2022/05/16 03:36:46;;;;;;;11.50;5.87;;;;;;;15.42;100.00;96339.09;5081849;28;20263;-85
2022/05/16 03:42:06;;;;;;;10.27;5.07;;;;;;;15.48;100.00;96342.69;5038201;28;20260;-86
2022/05/16 03:44:33;;;;;;;7.57;5.17;;;;;;;15.45;100.00;96349.47;5087186;28;20228;-85
2022/05/16 03:47:00;;;;;;;10.20;5.97;;;;;;;15.41;100.00;96350.25;5083610;28;20228;-86
2022/05/16 03:49:30;;;;;;;9.30;5.70;;;;;;;15.41;100.00;96350.25;5079284;28;20228;-85
2022/05/16 03:51:59;;;;;;;7.50;5.53;;;;;;;15.42;100.00;96358.16;5074404;28;20240;-85
2022/05/16 03:54:27;;;;;;;6.80;5.57;;;;;;;15.33;100.00;96348.00;5081558;28;20210;-86
2022/05/16 03:56:55;;;;;;;7.00;5.23;;;;;;;15.39;100.00;96368.75;5078699;28;20205;-86
2022/05/16 03:59:22;;;;;;;8.53;5.43;;;;;;;15.34;100.00;96355.09;5072368;28;20210;-85
2022/05/16 04:01:52;;;;;;;10.10;5.40;;;;;;;15.37;100.00;96370.91;5079210;28;20209;-85
2022/05/16 04:04:19;;;;;;;5.80;4.97;;;;;;;15.40;100.00;96370.38;5071279;28;20240;-85
2022/05/16 04:06:50;;;;;;;10.30;5.30;;;;;;;15.39;100.00;96371.47;5075866;28;20212;-86
2022/05/16 04:09:17;;;;;;;8.17;5.50;;;;;;;15.30;100.00;96373.03;5076308;28;20230;-86
2022/05/16 04:11:45;;;;;;;9.27;5.63;;;;;;;15.23;100.00;96369.69;5083964;28;20197;-86
2022/05/16 04:14:13;;;;;;;8.53;6.00;;;;;;;15.17;100.00;96374.25;5068928;28;20208;-86
2022/05/16 04:16:40;;;;;;;9.97;5.77;;;;;;;15.19;100.00;96366.69;5072169;28;20220;-86
2022/05/16 04:19:08;;;;;;;11.03;5.30;;;;;;;15.18;100.00;96361.50;5066744;28;20332;-85
2022/05/16 04:21:36;;;;;;;8.07;5.30;;;;;;;15.20;100.00;96370.22;5077538;28;20231;-84
2022/05/16 04:24:06;;;;;;;5.97;5.03;;;;;;;15.24;100.00;96376.75;5065959;28;20243;-86
2022/05/16 04:26:34;;;;;;;8.80;5.60;;;;;;;15.26;100.00;96380.06;5085275;28;20205;-85
2022/05/16 04:29:01;;;;;;;6.50;4.83;;;;;;;15.21;100.00;96374.59;5079974;28;20216;-85
2022/05/16 04:31:28;;;;;;;7.77;5.77;;;;;;;15.17;100.00;96371.53;5079169;28;20213;-85
2022/05/16 04:33:55;;;;;;;8.50;6.20;;;;;;;15.26;100.00;96382.78;5084413;28;20216;-86
2022/05/16 04:36:23;;;;;;;9.67;6.53;;;;;;;15.26;100.00;96377.34;5074039;28;20217;-86
2022/05/16 04:38:50;;;;;;;11.37;5.20;;;;;;;15.25;100.00;96387.41;5071974;28;20228;-85
2022/05/16 04:44:04;;;;;;;7.53;5.27;;;;;;;15.37;100.00;96392.69;5082651;28;20228;-86
2022/05/16 04:46:31;;;;;;;8.97;5.57;;;;;;;15.42;100.00;96393.53;5074590;28;20209;-85
2022/05/16 04:48:58;;;;;;;9.97;5.93;;;;;;;15.36;100.00;96401.91;5080876;28;20209;-85
2022/05/16 04:51:25;;;;;;;9.00;5.40;;;;;;;15.29;100.00;96390.44;5079522;28;20237;-84
2022/05/16 04:53:52;;;;;;;8.37;5.80;;;;;;;15.32;100.00;96404.31;5092039;28;20540;-85
2022/05/16 04:56:21;;;;;;;12.70;5.60;;;;;;;15.32;100.00;96404.31;5082832;28;20255;-85
2022/05/16 04:58:48;;;;;;;8.50;5.50;;;;;;;15.29;100.00;96413.00;5080666;28;20267;-85
2022/05/16 05:01:15;;;;;;;6.33;5.57;;;;;;;15.32;100.00;96415.19;5078610;28;20223;-85
2022/05/16 05:03:44;;;;;;;6.53;5.80;;;;;;;15.38;100.00;96422.34;5088899;28;20294;-86
2022/05/16 05:06:11;;;;;;;12.27;6.10;;;;;;;15.43;100.00;96418.84;5073025;28;20216;-86
2022/05/16 05:08:38;;;;;;;6.50;5.43;;;;;;;15.46;100.00;96410.16;5076252;28;20236;-85
2022/05/16 05:16:37;;;;;;;8.30;5.57;;;;;;;15.60;100.00;96430.44;5086762;28;20209;-84
2022/05/16 05:19:05;;;;;;;6.40;5.30;;;;;;;15.50;100.00;96433.03;5079098;28;20239;-86
2022/05/16 05:21:32;;;;;;;8.30;6.10;;;;;;;15.46;100.00;96432.75;5078719;28;20229;-85
2022/05/16 05:23:59;;;;;;;7.87;5.67;;;;;;;15.51;100.00;96431.97;5081936;28;20217;-85
2022/05/16 05:26:26;;;;;;;8.07;5.83;;;;;;;15.61;100.00;96440.25;5082919;28;20229;-85
2022/05/16 05:28:55;;;;;;;11.33;6.27;;;;;;;15.66;100.00;96444.91;5078212;28;20209;-86
2022/05/16 05:31:25;;;;;;;6.47;5.17;;;;;;;15.79;100.00;96458.09;5082957;28;20250;-86
2022/05/16 05:33:52;;;;;;;8.67;6.33;;;;;;;15.96;100.00;96468.84;5066507;28;20213;-85
2022/05/16 05:36:20;;;;;;;8.70;6.00;;;;;;;15.97;100.00;96474.03;5083116;28;20215;-86
2022/05/16 05:38:51;;;;;;;9.87;5.80;;;;;;;15.97;100.00;96467.75;5081943;28;20208;-86
2022/05/16 05:41:21;;;;;;;8.73;5.97;;;;;;;16.09;100.00;96482.00;5083018;28;20300;-86
2022/05/16 05:43:48;;;;;;;7.90;6.27;;;;;;;16.14;100.00;96485.59;5080105;28;20224;-85
2022/05/16 05:46:17;;;;;;;9.47;5.80;;;;;;;16.17;100.00;96489.69;5072731;28;20216;-86
2022/05/16 05:48:45;;;;;;;6.33;5.70;;;;;;;16.26;100.00;96496.28;5071340;28;20235;-85
2022/05/16 05:51:12;;;;;;;10.17;5.67;;;;;;;16.19;100.00;96499.25;5077018;28;20208;-86
2022/05/16 05:53:41;;;;;;;8.30;5.53;;;;;;;16.23;100.00;96496.81;5077221;28;20307;-86
2022/05/16 05:56:12;;;;;;;14.17;5.60;;;;;;;16.26;100.00;96504.44;5079186;28;20214;-85
2022/05/16 05:58:40;;;;;;;7.50;5.93;;;;;;;16.33;100.00;96510.53;5086208;28;20206;-86
2022/05/16 06:01:08;;;;;;;9.33;6.07;;;;;;;16.27;100.00;96506.91;5089956;28;20322;-86
2022/05/16 06:03:37;;;;;;;10.73;6.80;;;;;;;16.19;100.00;96499.25;5071910;28;20228;-86
2022/05/16 06:06:04;;;;;;;8.80;6.33;;;;;;;16.25;100.00;96497.34;5073970;28;20197;-86
2022/05/16 06:08:32;;;;;;;9.87;6.37;;;;;;;16.25;100.00;96491.91;5076783;28;20201;-85
2022/05/16 06:11:00;;;;;;;11.63;6.53;;;;;;;16.21;100.00;96493.53;5081907;28;20244;-87
2022/05/16 06:13:28;;;;;;;10.77;6.47;;;;;;;16.24;100.00;96504.75;5081755;28;20290;-86
2022/05/16 06:15:57;;;;;;;8.97;5.83;;;;;;;16.31;100.00;96512.69;5086268;28;20202;-86
2022/05/16 06:18:24;;;;;;;12.07;6.57;;;;;;;16.38;100.00;96518.72;5072483;28;20233;-86
2022/05/16 06:20:53;;;;;;;7.30;6.07;;;;;;;16.47;100.00;96516.31;5076624;28;20226;-86
2022/05/16 06:23:20;;;;;;;8.67;6.27;;;;;;;16.51;100.00;96515.50;5102069;28;20337;-85
2022/05/16 06:25:49;;;;;;;8.33;6.33;;;;;;;16.59;100.00;96514.19;5074434;28;20209;-86
2022/05/16 06:28:21;;;;;;;9.40;6.37;;;;;;;16.60;100.00;96533.03;5085203;28;20213;-86
2022/05/16 06:30:51;;;;;;;12.93;6.57;;;;;;;16.61;100.00;96534.69;5083797;28;20251;-86
2022/05/16 06:33:22;;;;;;;9.37;7.03;;;;;;;16.61;100.00;96528.41;5083698;28;20230;-86
2022/05/16 06:35:51;;;;;;;11.87;6.80;;;;;;;16.55;100.00;96534.91;5083854;28;20205;-86
2022/05/16 06:38:23;;;;;;;11.17;7.20;;;;;;;16.50;100.00;96532.94;5080320;28;20213;-86
2022/05/16 06:40:51;;;;;;;12.13;6.30;;;;;;;16.57;100.00;96530.00;5081590;28;20213;-86
2022/05/16 06:43:20;;;;;;;11.83;6.60;;;;;;;16.61;100.00;96534.69;5079015;28;20201;-84
2022/05/16 06:45:47;;;;;;;13.23;7.13;;;;;;;16.71;100.00;96546.75;5078803;28;20204;-85
2022/05/16 06:48:15;;;;;;;8.20;6.30;;;;;;;16.81;100.00;96549.53;5098181;28;20233;-85
2022/05/16 06:50:45;;;;;;;9.93;6.23;;;;;;;16.86;100.00;96555.00;5078781;28;20231;-85
2022/05/16 06:53:18;;;;;;;7.80;5.83;;;;;;;16.90;100.00;96559.69;5087576;28;20207;-86
2022/05/16 06:55:45;;;;;;;8.73;6.50;;;;;;;16.96;100.00;96550.44;5084381;28;20210;-87
2022/05/16 06:58:12;;;;;;;13.23;6.37;;;;;;;16.94;100.00;96551.78;5086797;28;20208;-85
2022/05/16 07:00:40;;;;;;;8.27;5.70;;;;;;;16.96;100.00;96563.25;5084598;28;20209;-85
2022/05/16 07:03:07;;;;;;;7.40;6.13;;;;;;;17.03;100.00;96569.28;5079435;28;20329;-86
2022/05/16 07:05:35;;;;;;;8.83;6.40;;;;;;;17.13;100.00;96563.88;5079503;28;20225;-86
2022/05/16 07:08:02;;;;;;;6.73;5.47;;;;;;;17.21;100.00;96568.00;5078760;28;20288;-85
2022/05/16 07:10:31;;;;;;;8.40;5.97;;;;;;;17.28;100.00;96566.66;5079558;28;20205;-85
2022/05/16 07:12:58;;;;;;;8.80;5.67;;;;;;;17.42;100.00;96574.34;5099839;28;20669;-85
2022/05/16 07:15:27;;;;;;;9.83;6.13;;;;;;;17.44;100.00;96580.38;5078798;28;20197;-86
2022/05/16 07:17:54;;;;;;;11.17;5.53;;;;;;;17.56;100.00;96579.03;5079128;28;20233;-85
2022/05/16 07:20:22;;;;;;;6.70;5.73;;;;;;;17.60;100.00;96580.16;5073325;28;20248;-86
2022/05/16 07:22:49;;;;;;;8.13;5.37;;;;;;;17.71;100.00;96581.00;5075512;28;20208;-86
2022/05/16 07:25:19;;;;;;;7.87;5.50;;;;;;;18.14;100.00;96590.63;5072998;28;20620;-85
2022/05/16 07:27:59;;;;;;;8.87;5.47;;;;;;;18.78;100.00;96593.66;5074531;28;20224;-86
2022/05/16 07:30:28;;;;;;;7.60;5.03;;;;;;;19.19;100.00;96591.63;5079112;28;20220;-86
2022/05/16 07:32:56;;;;;;;9.03;4.90;;;;;;;19.69;98.46;96589.81;5083696;28;20197;-86
2022/05/16 07:35:26;;;;;;;5.40;4.50;;;;;;;20.09;94.31;96599.69;5082839;28;20216;-85
2022/05/16 07:37:54;;;;;;;6.38;5.13;;;;;;;20.23;93.65;96592.47;5074839;28;20209;-85
2022/05/16 07:40:24;;;;;;;8.40;4.85;;;;;;;20.05;93.78;96595.91;5087468;28;20291;-86
2022/05/16 07:42:54;;;;;;;6.53;4.47;;;;;;;20.18;94.97;96605.38;5077746;28;20204;-86
2022/05/16 07:45:23;;;;;;;6.97;4.70;;;;;;;20.38;93.76;96603.34;5078197;28;20283;-86
2022/05/16 07:47:51;;;;;;;7.80;5.35;;;;;;;20.50;92.88;96600.22;5084605;28;20201;-86
2022/05/16 07:50:19;;;;;;;5.60;4.93;;;;;;;20.67;90.41;96594.34;5070576;28;20206;-85
2022/05/16 07:52:47;;;;;;;9.30;5.05;;;;;;;20.94;91.36;96594.59;5082139;28;20238;-86
2022/05/16 07:55:16;;;;;;;5.78;5.13;;;;;;;21.09;89.11;96591.72;5084536;28;20204;-86
2022/05/16 07:57:45;;;;;;;8.77;4.45;;;;;;;21.28;89.36;96574.50;5080938;28;20224;-85
2022/05/16 08:00:15;;;;;;;6.82;4.93;;;;;;;20.96;91.19;96588.84;5076469;28;20296;-86
2022/05/16 08:02:45;;;;;;;9.20;5.35;;;;;;;20.77;89.94;96575.00;5076840;28;20343;-86
2022/05/16 08:05:15;;;;;;;7.53;5.00;;;;;;;20.86;92.07;96577.94;5068556;28;20225;-85
2022/05/16 08:10:30;;;;;;;7.55;5.47;;;;;;;21.27;89.94;96573.69;5079199;28;20223;-86
2022/05/16 08:12:58;;;;;;;8.63;5.35;;;;;;;21.50;89.06;96570.13;5085993;28;20204;-85
2022/05/16 08:15:26;;;;;;;6.32;5.65;;;;;;;21.67;86.42;96569.63;5079082;28;20267;-85
2022/05/16 08:17:53;;;;;;;7.18;4.40;;;;;;;21.73;82.40;96570.34;5077665;28;20387;-85
2022/05/16 08:20:21;;;;;;;5.07;4.50;;;;;;;21.55;84.09;96566.47;5086222;28;20221;-86
2022/05/16 08:22:49;;;;;;;7.38;4.40;;;;;;;21.66;86.43;96562.47;5074998;28;20197;-85
2022/05/16 08:25:16;;;;;;;8.05;5.03;;;;;;;21.92;85.71;96562.13;5080496;28;20225;-85
2022/05/16 08:27:43;;;;;;;7.18;4.20;;;;;;;21.77;77.81;96557.66;5077455;28;20383;-85
2022/05/16 08:30:12;;;;;;;4.78;3.63;;;;;;;21.98;78.38;96561.78;5086391;28;20205;-85
2022/05/16 08:32:42;;;;;;;5.63;4.30;;;;;;;22.21;76.78;96562.78;5080214;28;20300;-86
2022/05/16 08:35:12;;;;;;;5.97;4.38;;;;;;;22.49;77.95;96561.78;5077519;28;20210;-85
2022/05/16 08:40:39;;;;;;;5.68;4.18;;;;;;;22.91;71.95;96579.25;5068508;28;20209;-85
2022/05/16 08:43:15;;;;;;;5.68;4.75;;;;;;;22.67;72.69;96568.34;5090662;28;20215;-85
2022/05/16 08:45:48;;;;;;;6.20;4.40;;;;;;;22.84;76.35;96565.06;5076049;28;20220;-85
2022/05/16 08:48:22;;;;;;;4.80;4.32;;;;;;;23.00;75.12;96558.97;5070642;28;20217;-85
2022/05/16 08:50:52;;;;;;;8.73;5.20;;;;;;;23.07;75.19;96561.31;5090911;28;20258;-86
2022/05/16 08:53:25;;;;;;;8.50;5.13;;;;;;;23.10;77.90;96568.97;5076085;28;20214;-86
2022/05/16 08:55:57;;;;;;;9.02;5.22;;;;;;;23.07;78.46;96558.56;5091722;28;20202;-85
2022/05/16 08:58:29;;;;;;;10.70;5.60;;;;;;;23.16;78.97;96556.72;5077302;28;20267;-85
2022/05/16 09:01:03;;;;;;;10.45;5.95;;;;;;;23.15;79.86;96555.09;5081105;28;20205;-86
2022/05/16 09:03:40;;;;;;;9.25;5.70;;;;;;;23.28;82.29;96559.00;5067186;28;20209;-86
2022/05/16 09:06:15;;;;;;;5.85;5.35;;;;;;;23.58;80.67;96557.56;5072160;28;20232;-85
2022/05/16 09:08:49;;;;;;;11.05;5.45;;;;;;;23.77;75.22;96550.78;5073030;28;20197;-85
2022/05/16 09:11:26;;;;;;;5.00;3.60;;;;;;;24.03;73.65;96564.81;5095004;28;20212;-85
2022/05/16 09:13:58;;;;;;;5.53;3.10;;;;;;;24.23;67.68;96551.72;5076607;28;20231;-86
2022/05/16 09:16:37;;;;;;;7.20;3.40;;;;;;;24.14;66.48;96555.19;5068508;28;20205;-86
2022/05/16 09:19:19;;;;;;;3.97;3.20;;;;;;;24.12;67.32;96549.16;5070532;28;20289;-85
2022/05/16 09:22:23;;;;;;;3.67;2.92;;;;;;;23.96;66.73;96541.56;5117939;27;20599;-84
2022/05/16 09:24:54;;;;;;;6.45;3.53;;;;;;;23.79;66.18;96553.25;5100634;28;20215;-84
2022/05/16 09:30:16;;;;;;;3.95;3.55;;;;;;;23.59;69.49;96545.41;5094517;28;20354;-84
2022/05/16 09:32:48;;;;;;;4.65;3.22;;;;;;;23.53;70.78;96547.47;5111876;27;20323;-84
2022/05/16 09:35:26;;;;;;;4.43;3.38;;;;;;;23.42;69.19;96547.94;5097914;28;20231;-84
2022/05/16 09:37:59;;;;;;;3.00;2.70;;;;;;;23.28;67.86;96540.53;5097934;28;20212;-85
2022/05/16 09:40:34;;;;;;;5.22;3.17;;;;;;;23.46;68.71;96537.97;5107075;27;20220;-84
2022/05/16 09:43:06;;;;;;;5.97;3.58;;;;;;;23.53;68.71;96538.38;5097789;28;20290;-84
2022/05/16 09:45:35;;;;;;;4.38;3.33;;;;;;;23.47;69.72;96539.59;5102764;28;20208;-84
2022/05/16 09:48:16;;;;;;;4.72;3.38;;;;;;;23.45;70.67;96533.56;5093746;28;20197;-84
2022/05/16 09:50:56;;;;;;;4.20;3.05;;;;;;;23.42;71.57;96535.00;5090581;28;20197;-84
2022/05/16 09:53:31;;;;;;;5.72;3.40;;;;;;;23.43;72.31;96527.53;5091135;28;20219;-83
2022/05/16 09:56:03;;;;;;;5.85;3.50;;;;;;;23.59;71.96;96526.13;5096947;28;20258;-83
2022/05/16 09:58:38;;;;;;;6.10;3.70;;;;;;;24.00;71.35;96526.81;5089326;28;20216;-83
2022/05/16 10:01:07;;;;;;;6.38;3.60;;;;;;;24.28;68.63;96524.00;5097395;28;20350;-83
2022/05/16 10:03:36;;;;;;;5.00;3.38;;;;;;;24.14;65.37;96518.50;5094787;28;20258;-86
2022/05/16 10:06:08;;;;;;;4.00;3.33;;;;;;;24.09;66.15;96518.63;5098081;28;20212;-83
2022/05/16 10:08:47;;;;;;;5.82;3.40;;;;;;;24.25;66.92;96521.84;5092449;28;20212;-83
2022/05/16 10:11:21;;;;;;;4.78;3.63;;;;;;;24.41;66.35;96512.09;5100976;28;20216;-83
2022/05/16 10:13:48;;;;;;;5.30;3.83;;;;;;;24.62;65.76;96507.66;5100582;28;20204;-83
2022/05/16 10:16:17;;;;;;;5.50;4.22;;;;;;;24.88;67.61;96508.59;5099514;28;20211;-83
2022/05/16 10:18:48;;;;;;;4.45;4.05;;;;;;;25.03;64.97;96512.94;5112309;27;20211;-83
2022/05/16 10:21:24;;;;;;;4.80;3.67;;;;;;;25.04;63.99;96505.44;5094205;28;20240;-83
2022/05/16 10:23:54;;;;;;;4.53;3.60;;;;;;;24.94;64.58;96503.78;5102411;28;20218;-83
2022/05/16 10:26:24;;;;;;;4.85;3.65;;;;;;;24.82;64.02;96498.03;5099847;28;20212;-83
2022/05/16 10:28:56;;;;;;;7.68;3.70;;;;;;;24.70;62.60;96501.38;5094354;28;20236;-83
2022/05/16 10:34:19;;;;;;;5.72;4.10;;;;;;;24.18;63.96;96494.69;5076506;28;20212;-83
2022/05/16 10:36:51;;;;;;;4.13;3.63;;;;;;;24.04;65.66;96494.75;5078052;28;20296;-83
2022/05/16 10:39:24;;;;;;;6.28;3.83;;;;;;;23.94;65.14;96488.66;5078386;28;20201;-84
2022/05/16 10:41:58;;;;;;;8.27;4.22;;;;;;;23.82;66.19;96477.38;5082260;28;20229;-82
2022/05/16 10:44:31;;;;;;;6.40;3.83;;;;;;;23.74;65.92;96479.72;5094083;28;20212;-82
2022/05/16 10:47:03;;;;;;;7.25;4.05;;;;;;;23.61;67.21;96468.75;5101203;28;20204;-82
2022/05/16 10:49:38;;;;;;;4.82;3.88;;;;;;;23.56;67.46;96477.13;5081172;28;20220;-82
2022/05/16 10:52:19;;;;;;;6.82;3.65;;;;;;;23.74;66.18;96478.91;5080206;28;20206;-82
2022/05/16 10:54:48;;;;;;;7.07;3.58;;;;;;;24.08;62.76;96476.41;5079346;28;20361;-82
2022/05/16 10:57:29;;;;;;;4.00;3.60;;;;;;;24.21;63.38;96485.00;5074341;28;20198;-82
2022/05/16 11:00:09;;;;;;;5.35;3.53;;;;;;;24.46;62.91;96476.06;5080072;28;20304;-82
2022/05/16 11:02:51;;;;;;;8.10;3.75;;;;;;;24.44;62.06;96476.38;5082839;28;20205;-82
2022/05/16 11:05:31;;;;;;;4.95;3.70;;;;;;;24.17;62.67;96475.66;5079866;28;20206;-82
2022/05/16 11:08:09;;;;;;;6.68;3.70;;;;;;;24.05;63.61;96468.78;5100507;27;20213;-82
2022/05/16 11:10:45;;;;;;;4.32;3.70;;;;;;;23.92;63.19;96460.56;5078593;28;20205;-82
2022/05/16 11:13:26;;;;;;;6.47;4.25;;;;;;;23.89;64.49;96464.78;5076971;28;20197;-83
2022/05/16 11:15:57;;;;;;;5.90;3.90;;;;;;;23.82;63.09;96474.63;5090690;28;20212;-82
2022/05/16 11:18:37;;;;;;;5.78;3.70;;;;;;;23.70;63.33;96462.19;5077029;28;20209;-83
2022/05/16 11:21:15;;;;;;;8.75;4.00;;;;;;;23.76;64.56;96460.94;5071850;28;20249;-82
2022/05/16 11:23:50;;;;;;;5.15;3.45;;;;;;;23.81;63.47;96468.28;5094236;28;20204;-82
2022/05/16 11:26:23;;;;;;;4.75;3.90;;;;;;;23.81;63.83;96467.47;5079449;28;20216;-83
2022/05/16 11:29:18;;;;;;;4.47;3.42;;;;;;;23.80;62.83;96471.34;5094376;27;20197;-83
2022/05/16 11:32:04;;;;;;;6.07;3.65;;;;;;;23.81;63.84;96471.03;5086690;28;20253;-83
2022/05/16 11:34:50;;;;;;;5.40;3.28;;;;;;;23.91;63.62;96473.53;5081529;28;20205;-83
2022/05/16 11:37:29;;;;;;;8.35;5.10;;;;;;;23.91;64.86;96478.22;5077525;28;20285;-82
2022/05/16 11:40:03;;;;;;;9.32;5.82;;;;;;;23.92;65.35;96474.34;5077139;28;20204;-83
2022/05/16 11:42:40;;;;;;;8.30;4.00;;;;;;;24.04;65.88;96472.69;5097860;28;20225;-83
2022/05/16 11:45:24;;;;;;;6.40;4.20;;;;;;;24.11;64.79;96472.22;5084413;28;20208;-83
2022/05/16 11:48:00;;;;;;;4.30;3.90;;;;;;;24.01;66.10;96473.28;5076305;28;20198;-83
2022/05/16 11:50:39;;;;;;;5.78;4.00;;;;;;;23.81;67.13;96475.75;5078322;28;20204;-83
2022/05/16 11:53:32;;;;;;;7.30;4.10;;;;;;;23.63;67.59;96472.00;5070489;28;20213;-83
2022/05/16 12:01:32;;;;;;;5.68;4.30;;;;;;;23.52;70.38;96474.19;5081056;28;20307;-83
2022/05/16 12:04:13;;;;;;;6.05;4.57;;;;;;;23.47;74.24;96477.03;5077415;28;20254;-83
2022/05/16 12:06:44;;;;;;;9.98;4.90;;;;;;;23.39;74.09;96483.28;5084538;28;20253;-83
2022/05/16 12:09:23;;;;;;;7.75;4.20;;;;;;;23.29;75.14;96478.78;5082790;28;20199;-82
2022/05/16 12:11:58;;;;;;;4.95;4.00;;;;;;;23.21;72.08;96475.94;5074623;28;20235;-83
2022/05/16 12:14:29;;;;;;;5.93;4.00;;;;;;;23.22;70.88;96481.13;5074896;28;20246;-85
2022/05/16 12:17:00;;;;;;;7.75;4.28;;;;;;;23.03;70.95;96480.44;5090952;28;20306;-85